It's Friday,
December 13th, 2019
User not logged in
[Run Race Header Image][Run Race logo]
  
Race webcasting is attempted by race directors and their support staff. Please remember that conditions under which they're working may make it difficult to post timely webcast updates... your interest and patience is appreciated!
Race Information
Race Name:2nd Annual Indiana Trail 100
Location:Albion
State:Indiana, United States
 button: button: Webcast Autoplay
Event Information
Name of Event:100 Mile Trail
Distance:100 Miles
Started Date/Time:Saturday April 26th, 2014, 5:59:34.15 am
button: Assign Numbers  
Checkpoint:Finish6
Distance:100.02 Miles
Gun Start Time:Saturday April 26th, 2014 5:59:34.15 am
Calculate Chip Start Time:< not set >
Y or N... Calculate splits based upon participant chip start time?
Allow Early Chip Start Time:< not set >
Y or N... Allow participants a chip start time prior to gun start?
Pos Race
Number
NameAgeSexTimePace 
1141Shan Riggs35M17:41:51.910:37.0Sat Apr 26th, 2014 11:41:26 pm
234Vincent Corona30M17:55:36.910:45.2Sat Apr 26th, 2014 11:55:11 pm
3166Jim Trout44M18:06:09.010:51.6Sun Apr 27th, 2014 12:05:43 am
4148Travis Shields37M18:19:29.810:59.6Sun Apr 27th, 2014 12:19:03 am
514John Bertram51M18:39:10.311:11.4Sun Apr 27th, 2014 12:38:44 am
6182Craig Wheeler52M18:53:21.211:19.9Sun Apr 27th, 2014 12:52:55 am
7151Jen Skelly34F18:56:59.511:22.1Sun Apr 27th, 2014 12:56:33 am
8158Paul Stofko38M19:55:04.011:56.9Sun Apr 27th, 2014 1:54:38 am
920Erin Brady42F20:21:26.612:12.7Sun Apr 27th, 2014 2:21:00 am
1026Jessica Campbell21F20:27:15.412:16.2Sun Apr 27th, 2014 2:26:49 am
11104David Mentjes44M20:57:36.012:34.4Sun Apr 27th, 2014 2:57:10 am
1244Tanya Eggert44F21:08:46.312:41.1Sun Apr 27th, 2014 3:08:20 am
1387Ryan "Stormy" Knight37M21:25:28.012:51.1Sun Apr 27th, 2014 3:25:02 am
14127Daniel Paige34M21:30:30.812:54.2Sun Apr 27th, 2014 3:30:04 am
1541Paul Dott31M21:44:24.313:02.5Sun Apr 27th, 2014 3:43:58 am
16115Carolynn Nauta32F21:53:19.613:07.8Sun Apr 27th, 2014 3:52:53 am
1746Mike Else45M22:07:26.713:16.3Sun Apr 27th, 2014 4:07:00 am
18140Kirk Ridenour54M22:25:40.313:27.2Sun Apr 27th, 2014 4:25:14 am
19113SIAMAK MOSTOUFI39M22:30:07.913:29.9Sun Apr 27th, 2014 4:29:42 am
2024todd brown45M22:30:07.913:29.9Sun Apr 27th, 2014 4:29:42 am
21177Eric Fritz46M22:40:01.013:35.8Sun Apr 27th, 2014 4:39:35 am
22181Rene Samano28M22:45:38.413:39.2Sun Apr 27th, 2014 4:45:12 am
23133Richard Plezia55M22:47:17.013:40.2Sun Apr 27th, 2014 4:46:51 am
24154Mike Smith56M22:51:33.813:42.8Sun Apr 27th, 2014 4:51:07 am
2568Shawn Hawk49M22:53:24.013:43.9Sun Apr 27th, 2014 4:52:58 am
2628Tony Cesario50M23:06:06.513:51.5Sun Apr 27th, 2014 5:05:40 am
27134dave potter49M23:11:44.413:54.9Sun Apr 27th, 2014 5:11:18 am
2879David E. Jackson36M23:12:03.013:55.1Sun Apr 27th, 2014 5:11:37 am
29183Anastasia Andrychowski34F23:15:03.513:56.9Sun Apr 27th, 2014 5:14:37 am
30114Larry Mullinnix49M23:19:58.813:59.8Sun Apr 27th, 2014 5:19:32 am
31162Mark Thill38M23:27:15.714:04.2Sun Apr 27th, 2014 5:26:49 am
3240Noe j Dominguez45M23:29:01.914:05.2Sun Apr 27th, 2014 5:28:36 am
3362Martin Guthrie47M23:29:14.614:05.4Sun Apr 27th, 2014 5:28:48 am
3473Jeff Hogan45M23:48:09.214:16.7Sun Apr 27th, 2014 5:47:43 am
35123Reggie O'HARA45M23:49:12.414:17.4Sun Apr 27th, 2014 5:48:46 am
3650Linda Keuneke50F23:52:44.314:19.5Sun Apr 27th, 2014 5:52:18 am
37125Jeff Oliver40M24:02:58.514:25.6Sun Apr 27th, 2014 6:02:32 am
3854Tom Fifer51M24:17:05.314:34.1Sun Apr 27th, 2014 6:16:39 am
3942Michael Dowdell38M24:18:44.814:35.1Sun Apr 27th, 2014 6:18:18 am
4076Scott Hudson46M24:26:39.714:39.8Sun Apr 27th, 2014 6:26:13 am
41116David Nelson26M24:31:13.014:42.6Sun Apr 27th, 2014 6:30:47 am
42171Marci Wease37F24:36:59.314:46.0Sun Apr 27th, 2014 6:36:33 am
4317Andrew Borst43M24:39:39.914:47.6Sun Apr 27th, 2014 6:39:14 am
44103Chris McMahon54M24:42:50.914:49.5Sun Apr 27th, 2014 6:42:25 am
4583Chris Junken35M24:44:58.814:50.8Sun Apr 27th, 2014 6:44:32 am
4657Mark Gavorski48M24:54:24.914:56.5Sun Apr 27th, 2014 6:53:59 am
47108Joshua Mock32M24:59:34.414:59.6Sun Apr 27th, 2014 6:59:08 am
4899Daniel Maddox38M25:06:07.915:03.5Sun Apr 27th, 2014 7:05:42 am
4991Bill Kulwicki55M25:14:34.615:08.6Sun Apr 27th, 2014 7:14:08 am
50156Phil Stapert47M25:31:23.115:18.6Sun Apr 27th, 2014 7:30:57 am
518Brian Barger53M25:34:38.415:20.6Sun Apr 27th, 2014 7:34:12 am
5236John Cushma40M25:42:53.415:25.5Sun Apr 27th, 2014 7:42:27 am
5372Rich Henderson58M25:44:33.615:26.6Sun Apr 27th, 2014 7:44:07 am
5456Helen Garen49F25:46:37.315:27.8Sun Apr 27th, 2014 7:46:11 am
5521Bob Brashear55M25:57:21.515:34.2Sun Apr 27th, 2014 7:56:55 am
5663Jerret Halter32M26:06:57.215:40.0Sun Apr 27th, 2014 8:06:31 am
57174Randall Yost55M26:12:08.215:43.1Sun Apr 27th, 2014 8:11:42 am
5839Nathan DeWall34M26:28:54.015:53.1
59143Matthew Santner37M26:47:22.916:04.2Sun Apr 27th, 2014 8:46:57 am
60159Steve Sunbury44M26:53:32.416:07.9Sun Apr 27th, 2014 8:53:06 am
61121Mark Norfleet57M26:55:00.616:08.8Sun Apr 27th, 2014 8:54:34 am
622Kurt Adams35M26:55:30.616:09.1Sun Apr 27th, 2014 8:55:04 am
63107Kirk Misaka55M26:56:09.116:09.5Sun Apr 27th, 2014 8:55:43 am
64146Rob Schultz47M26:56:44.916:09.9Sun Apr 27th, 2014 8:56:19 am
65130Alfredo ''Moose'' Pedro45M27:18:09.316:22.7Sun Apr 27th, 2014 9:17:43 am
6625Aaron Butler32M27:20:17.216:24.0Sun Apr 27th, 2014 9:19:51 am
67167Ali Turfe50M27:32:45.016:31.5Sun Apr 27th, 2014 9:32:19 am
6853Ramon Ferrer Jr34M27:38:25.216:34.9Sun Apr 27th, 2014 9:37:59 am
6966Dick Canterbury66M27:40:48.216:36.3Sun Apr 27th, 2014 9:40:22 am
7031Mark Coates33M27:43:06.316:37.7Sun Apr 27th, 2014 9:42:40 am
7152Jamie Farley35M27:46:19.316:39.6Sun Apr 27th, 2014 9:45:53 am
7233Aaron Conner41M27:50:49.416:42.3Sun Apr 27th, 2014 9:50:23 am
7316toni bohannon46F27:55:41.016:45.2Sun Apr 27th, 2014 9:55:15 am
7486John Klarquist49M27:59:46.716:47.7Sun Apr 27th, 2014 9:59:20 am
7593John Leighton53M28:15:22.716:57.0Sun Apr 27th, 2014 10:14:56 am
769Crystal Barton38F28:20:18.417:00.0Sun Apr 27th, 2014 10:19:52 am
7712Richard Barton61M28:20:18.617:00.0Sun Apr 27th, 2014 10:19:52 am
7864Cindylee Torres54F28:23:10.917:01.7Sun Apr 27th, 2014 10:22:45 am
7970Mike Heider54M28:24:00.617:02.2Sun Apr 27th, 2014 10:23:34 am
8048Karen Erba44F28:27:02.617:04.0Sun Apr 27th, 2014 10:26:36 am
8138James Davidson51M28:29:28.417:05.5Sun Apr 27th, 2014 10:29:02 am
8278Lauren Idzik43F28:31:16.817:06.6Sun Apr 27th, 2014 10:30:50 am
83101Sondra Marker50F28:32:17.917:07.2Sun Apr 27th, 2014 10:31:52 am
846Ric Angara43M28:34:28.917:08.5Sun Apr 27th, 2014 10:34:03 am
85105Craig Meseko29M28:41:22.517:12.6Sun Apr 27th, 2014 10:40:56 am
86124Ethan Olds24M28:46:23.517:15.6Sun Apr 27th, 2014 10:45:57 am
875LEE ANDERSON56M28:47:42.317:16.4Sun Apr 27th, 2014 10:47:16 am
8882Juan Juarez42M28:52:50.217:19.5
8974Alex "ACE" Honigford33M28:54:39.917:20.6Sun Apr 27th, 2014 10:54:14 am
90173Michael Wolff41M28:55:56.117:21.4Sun Apr 27th, 2014 10:55:30 am
91138Frank Rampton57M28:58:49.317:23.1Sun Apr 27th, 2014 10:58:23 am
9269Kent Heck52M29:00:33.417:24.1Sun Apr 27th, 2014 11:00:07 am
9347David Englund46M29:00:43.317:24.2Sun Apr 27th, 2014 11:00:17 am
943Justin Alford40M29:03:34.817:25.9
95122Terry Null55M29:11:50.017:30.9Sun Apr 27th, 2014 11:11:24 am
96176Stan Zygmunt51M29:15:08.117:32.9Sun Apr 27th, 2014 11:14:42 am
97169Chris Walker34M29:16:14.817:33.5Sun Apr 27th, 2014 11:15:48 am
98137Jamie Quarandillo40F29:19:25.517:35.4Sun Apr 27th, 2014 11:18:59 am
99150Robert Siscoe59M29:27:38.717:40.4Sun Apr 27th, 2014 11:27:12 am
100120Caleb Nolen28M29:30:19.617:42.0Sun Apr 27th, 2014 11:29:53 am
101172Kenneth Westerman55M29:53:49.617:56.1Sun Apr 27th, 2014 6:28:08 am

Event Information
Name of Event:50 Mile Trail
Distance:50 Miles
Started Date/Time:Saturday April 26th, 2014, 5:59:34.15 am
button: Assign Numbers 
2004-2019 : All rights reserved
Terms and Conditions